sensor_id;sensor_type;location;lat;lon;timestamp;temperature;humidity
64997;SHT31;51545;51.568;6.998;2022-12-18T00:01:18;-7.50;92.30
64997;SHT31;51545;51.568;6.998;2022-12-18T00:03:45;-7.45;92.52
64997;SHT31;51545;51.568;6.998;2022-12-18T00:06:11;-7.41;92.60
64997;SHT31;51545;51.568;6.998;2022-12-18T00:08:38;-7.42;92.46
64997;SHT31;51545;51.568;6.998;2022-12-18T00:11:05;-7.44;92.32
64997;SHT31;51545;51.568;6.998;2022-12-18T00:13:32;-7.40;92.64
64997;SHT31;51545;51.568;6.998;2022-12-18T00:16:02;-7.38;92.42
64997;SHT31;51545;51.568;6.998;2022-12-18T00:18:29;-7.50;92.20
64997;SHT31;51545;51.568;6.998;2022-12-18T00:20:58;-7.50;92.23
64997;SHT31;51545;51.568;6.998;2022-12-18T00:23:25;-7.58;92.09
64997;SHT31;51545;51.568;6.998;2022-12-18T00:25:51;-7.68;91.91
64997;SHT31;51545;51.568;6.998;2022-12-18T00:28:16;-7.75;91.83
64997;SHT31;51545;51.568;6.998;2022-12-18T00:30:42;-7.78;91.87
64997;SHT31;51545;51.568;6.998;2022-12-18T00:33:07;-7.82;91.96
64997;SHT31;51545;51.568;6.998;2022-12-18T00:35:33;-7.70;92.33
64997;SHT31;51545;51.568;6.998;2022-12-18T00:37:58;-7.66;92.36
64997;SHT31;51545;51.568;6.998;2022-12-18T00:40:23;-7.66;92.35
64997;SHT31;51545;51.568;6.998;2022-12-18T00:42:49;-7.63;92.17
64997;SHT31;51545;51.568;6.998;2022-12-18T00:45:20;-7.63;92.16
64997;SHT31;51545;51.568;6.998;2022-12-18T00:47:54;-7.63;92.17
64997;SHT31;51545;51.568;6.998;2022-12-18T00:50:20;-7.63;91.84
64997;SHT31;51545;51.568;6.998;2022-12-18T00:52:46;-7.72;91.72
64997;SHT31;51545;51.568;6.998;2022-12-18T00:55:12;-7.70;91.76
64997;SHT31;51545;51.568;6.998;2022-12-18T00:57:38;-7.70;91.99
64997;SHT31;51545;51.568;6.998;2022-12-18T01:00:04;-7.66;91.82
64997;SHT31;51545;51.568;6.998;2022-12-18T01:02:31;-7.61;91.95
64997;SHT31;51545;51.568;6.998;2022-12-18T01:04:56;-7.61;91.82
64997;SHT31;51545;51.568;6.998;2022-12-18T01:07:22;-7.76;91.50
64997;SHT31;51545;51.568;6.998;2022-12-18T01:09:47;-7.92;91.32
64997;SHT31;51545;51.568;6.998;2022-12-18T01:12:13;-7.93;91.43
64997;SHT31;51545;51.568;6.998;2022-12-18T01:14:38;-7.90;91.64
64997;SHT31;51545;51.568;6.998;2022-12-18T01:17:04;-7.82;91.98
64997;SHT31;51545;51.568;6.998;2022-12-18T01:19:29;-7.78;92.05
64997;SHT31;51545;51.568;6.998;2022-12-18T01:21:55;-7.76;92.03
64997;SHT31;51545;51.568;6.998;2022-12-18T01:24:21;-7.75;91.99
64997;SHT31;51545;51.568;6.998;2022-12-18T01:26:46;-7.78;91.72
64997;SHT31;51545;51.568;6.998;2022-12-18T01:29:12;-7.82;91.68
64997;SHT31;51545;51.568;6.998;2022-12-18T01:31:37;-7.87;91.61
64997;SHT31;51545;51.568;6.998;2022-12-18T01:34:03;-7.92;91.63
64997;SHT31;51545;51.568;6.998;2022-12-18T01:36:31;-7.92;91.60
64997;SHT31;51545;51.568;6.998;2022-12-18T01:39:02;-7.86;91.71
64997;SHT31;51545;51.568;6.998;2022-12-18T01:41:30;-7.85;91.77
64997;SHT31;51545;51.568;6.998;2022-12-18T01:50:13;-8.05;91.52
64997;SHT31;51545;51.568;6.998;2022-12-18T01:52:43;-8.00;91.73
64997;SHT31;51545;51.568;6.998;2022-12-18T01:55:12;-7.95;91.93
64997;SHT31;51545;51.568;6.998;2022-12-18T01:57:40;-7.89;91.98
64997;SHT31;51545;51.568;6.998;2022-12-18T02:00:14;-7.86;91.91
64997;SHT31;51545;51.568;6.998;2022-12-18T02:02:43;-7.90;91.87
64997;SHT31;51545;51.568;6.998;2022-12-18T02:05:10;-7.95;91.76
64997;SHT31;51545;51.568;6.998;2022-12-18T02:10:16;-8.10;91.67
64997;SHT31;51545;51.568;6.998;2022-12-18T02:13:03;-8.09;91.76
64997;SHT31;51545;51.568;6.998;2022-12-18T02:18:30;-8.16;91.59
64997;SHT31;51545;51.568;6.998;2022-12-18T02:21:02;-8.23;91.52
64997;SHT31;51545;51.568;6.998;2022-12-18T02:26:49;-8.09;92.28
64997;SHT31;51545;51.568;6.998;2022-12-18T02:32:14;-8.02;92.45
64997;SHT31;51545;51.568;6.998;2022-12-18T02:34:43;-8.06;92.29
64997;SHT31;51545;51.568;6.998;2022-12-18T02:37:12;-8.06;92.25
64997;SHT31;51545;51.568;6.998;2022-12-18T02:39:43;-8.05;92.38
64997;SHT31;51545;51.568;6.998;2022-12-18T02:42:12;-8.05;92.22
64997;SHT31;51545;51.568;6.998;2022-12-18T02:44:42;-8.05;92.11
64997;SHT31;51545;51.568;6.998;2022-12-18T02:47:10;-8.10;92.10
64997;SHT31;51545;51.568;6.998;2022-12-18T02:57:50;-8.09;92.05
64997;SHT31;51545;51.568;6.998;2022-12-18T03:01:06;-8.09;92.01
64997;SHT31;51545;51.568;6.998;2022-12-18T03:03:28;-8.06;92.10
64997;SHT31;51545;51.568;6.998;2022-12-18T03:06:06;-8.05;92.20
64997;SHT31;51545;51.568;6.998;2022-12-18T03:08:38;-8.05;92.02
64997;SHT31;51545;51.568;6.998;2022-12-18T03:11:08;-8.06;92.03
64997;SHT31;51545;51.568;6.998;2022-12-18T03:16:31;-8.13;91.85
64997;SHT31;51545;51.568;6.998;2022-12-18T03:19:06;-8.13;91.89
64997;SHT31;51545;51.568;6.998;2022-12-18T03:21:45;-8.05;92.12
64997;SHT31;51545;51.568;6.998;2022-12-18T03:24:15;-8.07;91.95
64997;SHT31;51545;51.568;6.998;2022-12-18T03:26:43;-8.07;92.01
64997;SHT31;51545;51.568;6.998;2022-12-18T03:29:59;-8.05;92.03
64997;SHT31;51545;51.568;6.998;2022-12-18T03:32:07;-8.02;91.99
64997;SHT31;51545;51.568;6.998;2022-12-18T03:34:36;-8.05;92.04
64997;SHT31;51545;51.568;6.998;2022-12-18T03:37:04;-8.11;91.96
64997;SHT31;51545;51.568;6.998;2022-12-18T03:39:31;-8.10;92.15
64997;SHT31;51545;51.568;6.998;2022-12-18T03:50:16;-7.95;92.22
64997;SHT31;51545;51.568;6.998;2022-12-18T03:52:57;-8.05;92.05
64997;SHT31;51545;51.568;6.998;2022-12-18T03:55:23;-8.02;92.30
64997;SHT31;51545;51.568;6.998;2022-12-18T03:57:50;-8.02;92.36
64997;SHT31;51545;51.568;6.998;2022-12-18T04:00:18;-8.00;92.33
64997;SHT31;51545;51.568;6.998;2022-12-18T04:02:45;-8.03;92.36
64997;SHT31;51545;51.568;6.998;2022-12-18T04:05:22;-8.02;92.33
64997;SHT31;51545;51.568;6.998;2022-12-18T04:07:50;-8.03;92.34
64997;SHT31;51545;51.568;6.998;2022-12-18T04:10:17;-8.03;92.24
64997;SHT31;51545;51.568;6.998;2022-12-18T04:12:43;-8.06;92.08
64997;SHT31;51545;51.568;6.998;2022-12-18T04:15:09;-8.05;92.05
64997;SHT31;51545;51.568;6.998;2022-12-18T04:17:35;-8.05;92.05
64997;SHT31;51545;51.568;6.998;2022-12-18T04:20:01;-8.03;92.03
64997;SHT31;51545;51.568;6.998;2022-12-18T04:22:26;-8.02;92.15
64997;SHT31;51545;51.568;6.998;2022-12-18T04:24:52;-8.00;92.11
64997;SHT31;51545;51.568;6.998;2022-12-18T04:27:17;-7.96;92.08
64997;SHT31;51545;51.568;6.998;2022-12-18T04:29:43;-7.96;92.16
64997;SHT31;51545;51.568;6.998;2022-12-18T04:32:08;-7.96;91.91
64997;SHT31;51545;51.568;6.998;2022-12-18T04:34:34;-7.97;91.98
64997;SHT31;51545;51.568;6.998;2022-12-18T04:36:59;-8.02;92.01
64997;SHT31;51545;51.568;6.998;2022-12-18T04:39:25;-8.02;92.11
64997;SHT31;51545;51.568;6.998;2022-12-18T04:41:50;-7.97;92.34
64997;SHT31;51545;51.568;6.998;2022-12-18T04:44:16;-7.97;92.32
64997;SHT31;51545;51.568;6.998;2022-12-18T04:46:41;-7.99;92.19
64997;SHT31;51545;51.568;6.998;2022-12-18T04:49:06;-8.02;92.28
64997;SHT31;51545;51.568;6.998;2022-12-18T04:51:32;-8.00;92.28
64997;SHT31;51545;51.568;6.998;2022-12-18T04:53:58;-8.03;92.15
64997;SHT31;51545;51.568;6.998;2022-12-18T04:56:23;-8.05;92.19
64997;SHT31;51545;51.568;6.998;2022-12-18T04:58:48;-8.02;92.17
64997;SHT31;51545;51.568;6.998;2022-12-18T05:01:15;-8.07;92.13
64997;SHT31;51545;51.568;6.998;2022-12-18T05:03:42;-8.06;92.21
64997;SHT31;51545;51.568;6.998;2022-12-18T05:06:07;-8.09;92.04
64997;SHT31;51545;51.568;6.998;2022-12-18T05:08:33;-8.13;91.99
64997;SHT31;51545;51.568;6.998;2022-12-18T05:13:26;-8.10;92.11
64997;SHT31;51545;51.568;6.998;2022-12-18T05:15:53;-8.13;92.01
64997;SHT31;51545;51.568;6.998;2022-12-18T05:18:19;-8.16;92.07
64997;SHT31;51545;51.568;6.998;2022-12-18T05:20:45;-8.11;92.15
64997;SHT31;51545;51.568;6.998;2022-12-18T05:23:11;-8.10;92.27
64997;SHT31;51545;51.568;6.998;2022-12-18T05:25:36;-8.09;92.29
64997;SHT31;51545;51.568;6.998;2022-12-18T05:28:02;-8.07;92.31
64997;SHT31;51545;51.568;6.998;2022-12-18T05:30:27;-8.10;92.18
64997;SHT31;51545;51.568;6.998;2022-12-18T05:32:53;-8.11;92.33
64997;SHT31;51545;51.568;6.998;2022-12-18T05:35:18;-8.09;92.36
64997;SHT31;51545;51.568;6.998;2022-12-18T05:37:44;-8.09;92.32
64997;SHT31;51545;51.568;6.998;2022-12-18T05:40:09;-8.09;92.23
64997;SHT31;51545;51.568;6.998;2022-12-18T05:42:35;-8.06;92.07
64997;SHT31;51545;51.568;6.998;2022-12-18T05:45:01;-8.13;92.00
64997;SHT31;51545;51.568;6.998;2022-12-18T05:47:27;-8.14;92.12
64997;SHT31;51545;51.568;6.998;2022-12-18T05:49:53;-8.11;92.27
64997;SHT31;51545;51.568;6.998;2022-12-18T05:52:19;-8.10;92.23
64997;SHT31;51545;51.568;6.998;2022-12-18T05:54:44;-8.13;92.10
64997;SHT31;51545;51.568;6.998;2022-12-18T05:57:10;-8.14;92.17
64997;SHT31;51545;51.568;6.998;2022-12-18T05:59:35;-8.18;92.13
64997;SHT31;51545;51.568;6.998;2022-12-18T06:02:00;-8.20;92.07
64997;SHT31;51545;51.568;6.998;2022-12-18T06:04:27;-8.23;92.11
64997;SHT31;51545;51.568;6.998;2022-12-18T06:06:53;-8.25;92.10
64997;SHT31;51545;51.568;6.998;2022-12-18T06:09:19;-8.25;92.11
64997;SHT31;51545;51.568;6.998;2022-12-18T06:11:45;-8.25;92.22
64997;SHT31;51545;51.568;6.998;2022-12-18T06:14:10;-8.23;92.21
64997;SHT31;51545;51.568;6.998;2022-12-18T06:16:35;-8.24;92.27
64997;SHT31;51545;51.568;6.998;2022-12-18T06:19:02;-8.23;92.30
64997;SHT31;51545;51.568;6.998;2022-12-18T06:21:30;-8.20;92.26
64997;SHT31;51545;51.568;6.998;2022-12-18T06:23:56;-8.20;92.23
64997;SHT31;51545;51.568;6.998;2022-12-18T06:26:21;-8.13;92.41
64997;SHT31;51545;51.568;6.998;2022-12-18T06:28:47;-8.11;92.44
64997;SHT31;51545;51.568;6.998;2022-12-18T06:31:12;-8.09;92.48
64997;SHT31;51545;51.568;6.998;2022-12-18T06:33:38;-8.11;92.50
64997;SHT31;51545;51.568;6.998;2022-12-18T06:36:05;-8.14;92.53
64997;SHT31;51545;51.568;6.998;2022-12-18T06:38:33;-8.11;92.66
64997;SHT31;51545;51.568;6.998;2022-12-18T06:40:59;-8.09;92.88
64997;SHT31;51545;51.568;6.998;2022-12-18T06:43:25;-8.06;92.97
64997;SHT31;51545;51.568;6.998;2022-12-18T06:45:51;-8.05;92.87
64997;SHT31;51545;51.568;6.998;2022-12-18T06:48:18;-8.10;92.77
64997;SHT31;51545;51.568;6.998;2022-12-18T06:50:45;-8.10;92.81
64997;SHT31;51545;51.568;6.998;2022-12-18T06:53:10;-8.11;92.71
64997;SHT31;51545;51.568;6.998;2022-12-18T06:55:36;-7.99;92.94
64997;SHT31;51545;51.568;6.998;2022-12-18T06:58:01;-8.02;92.86
64997;SHT31;51545;51.568;6.998;2022-12-18T07:00:27;-7.96;92.86
64997;SHT31;51545;51.568;6.998;2022-12-18T07:02:52;-7.95;92.91
64997;SHT31;51545;51.568;6.998;2022-12-18T07:05:18;-7.85;93.04
64997;SHT31;51545;51.568;6.998;2022-12-18T07:07:43;-7.86;93.08
64997;SHT31;51545;51.568;6.998;2022-12-18T07:10:08;-7.75;93.12
64997;SHT31;51545;51.568;6.998;2022-12-18T07:12:34;-7.76;93.00
64997;SHT31;51545;51.568;6.998;2022-12-18T07:15:00;-7.79;92.86
64997;SHT31;51545;51.568;6.998;2022-12-18T07:17:25;-7.83;92.82
64997;SHT31;51545;51.568;6.998;2022-12-18T07:19:50;-7.81;92.97
64997;SHT31;51545;51.568;6.998;2022-12-18T07:22:16;-7.81;93.01
64997;SHT31;51545;51.568;6.998;2022-12-18T07:24:41;-7.73;92.97
64997;SHT31;51545;51.568;6.998;2022-12-18T07:27:07;-7.78;92.90
64997;SHT31;51545;51.568;6.998;2022-12-18T07:29:32;-7.78;92.86
64997;SHT31;51545;51.568;6.998;2022-12-18T07:31:58;-7.72;92.86
64997;SHT31;51545;51.568;6.998;2022-12-18T07:34:23;-7.66;93.01
64997;SHT31;51545;51.568;6.998;2022-12-18T07:36:48;-7.68;93.05
64997;SHT31;51545;51.568;6.998;2022-12-18T07:39:14;-7.69;92.97
64997;SHT31;51545;51.568;6.998;2022-12-18T07:41:39;-7.66;93.02
64997;SHT31;51545;51.568;6.998;2022-12-18T07:44:10;-7.69;92.97
64997;SHT31;51545;51.568;6.998;2022-12-18T07:46:37;-7.62;93.10
64997;SHT31;51545;51.568;6.998;2022-12-18T07:49:03;-7.61;93.07
64997;SHT31;51545;51.568;6.998;2022-12-18T07:51:28;-7.54;93.07
64997;SHT31;51545;51.568;6.998;2022-12-18T07:53:54;-7.44;93.15
64997;SHT31;51545;51.568;6.998;2022-12-18T07:56:19;-7.41;93.08
64997;SHT31;51545;51.568;6.998;2022-12-18T07:58:46;-7.40;93.14
64997;SHT31;51545;51.568;6.998;2022-12-18T08:01:12;-7.35;93.23
64997;SHT31;51545;51.568;6.998;2022-12-18T08:03:38;-7.28;93.26
64997;SHT31;51545;51.568;6.998;2022-12-18T08:06:05;-7.20;93.29
64997;SHT31;51545;51.568;6.998;2022-12-18T08:08:32;-7.10;93.42
64997;SHT31;51545;51.568;6.998;2022-12-18T08:10:59;-7.07;93.42
64997;SHT31;51545;51.568;6.998;2022-12-18T08:13:25;-7.06;93.45
64997;SHT31;51545;51.568;6.998;2022-12-18T08:18:24;-7.00;93.48
64997;SHT31;51545;51.568;6.998;2022-12-18T08:20:49;-6.91;93.60
64997;SHT31;51545;51.568;6.998;2022-12-18T08:23:15;-6.79;93.68
64997;SHT31;51545;51.568;6.998;2022-12-18T08:25:40;-6.67;93.80
64997;SHT31;51545;51.568;6.998;2022-12-18T08:28:06;-6.58;93.75
64997;SHT31;51545;51.568;6.998;2022-12-18T08:30:31;-6.50;93.76
64997;SHT31;51545;51.568;6.998;2022-12-18T08:32:57;-6.38;93.84
64997;SHT31;51545;51.568;6.998;2022-12-18T08:35:23;-6.22;94.01
64997;SHT31;51545;51.568;6.998;2022-12-18T08:37:48;-6.06;94.04
64997;SHT31;51545;51.568;6.998;2022-12-18T08:40:14;-5.91;94.21
64997;SHT31;51545;51.568;6.998;2022-12-18T08:42:39;-5.67;94.51
64997;SHT31;51545;51.568;6.998;2022-12-18T08:45:25;-5.35;94.50
64997;SHT31;51545;51.568;6.998;2022-12-18T08:47:55;-5.11;94.34
64997;SHT31;51545;51.568;6.998;2022-12-18T08:50:20;-4.92;94.10
64997;SHT31;51545;51.568;6.998;2022-12-18T08:52:46;-4.71;93.86
64997;SHT31;51545;51.568;6.998;2022-12-18T08:55:11;-4.54;93.60
64997;SHT31;51545;51.568;6.998;2022-12-18T08:57:37;-4.29;92.98
64997;SHT31;51545;51.568;6.998;2022-12-18T09:00:03;-4.18;92.75
64997;SHT31;51545;51.568;6.998;2022-12-18T09:02:29;-3.95;92.30
64997;SHT31;51545;51.568;6.998;2022-12-18T09:04:55;-3.86;92.01
64997;SHT31;51545;51.568;6.998;2022-12-18T09:07:20;-3.79;92.07
64997;SHT31;51545;51.568;6.998;2022-12-18T09:09:45;-3.73;91.72
64997;SHT31;51545;51.568;6.998;2022-12-18T09:12:11;-3.59;91.30
64997;SHT31;51545;51.568;6.998;2022-12-18T09:14:36;-3.47;90.51
64997;SHT31;51545;51.568;6.998;2022-12-18T09:17:02;-3.36;90.54
64997;SHT31;51545;51.568;6.998;2022-12-18T09:19:27;-3.28;89.54
64997;SHT31;51545;51.568;6.998;2022-12-18T09:21:53;-3.21;89.10
64997;SHT31;51545;51.568;6.998;2022-12-18T09:24:18;-3.14;88.98
64997;SHT31;51545;51.568;6.998;2022-12-18T09:26:44;-3.14;89.33
64997;SHT31;51545;51.568;6.998;2022-12-18T09:29:10;-3.14;89.17
64997;SHT31;51545;51.568;6.998;2022-12-18T09:31:35;-3.14;89.13
64997;SHT31;51545;51.568;6.998;2022-12-18T09:34:01;-3.08;89.24
64997;SHT31;51545;51.568;6.998;2022-12-18T09:36:27;-3.07;89.61
64997;SHT31;51545;51.568;6.998;2022-12-18T09:38:52;-3.00;89.58
64997;SHT31;51545;51.568;6.998;2022-12-18T09:41:24;-2.98;89.64
64997;SHT31;51545;51.568;6.998;2022-12-18T09:43:56;-2.97;89.94
64997;SHT31;51545;51.568;6.998;2022-12-18T09:46:36;-2.90;89.71
64997;SHT31;51545;51.568;6.998;2022-12-18T09:49:11;-2.77;89.58
64997;SHT31;51545;51.568;6.998;2022-12-18T09:51:41;-2.65;89.25
64997;SHT31;51545;51.568;6.998;2022-12-18T09:54:12;-2.56;89.39
64997;SHT31;51545;51.568;6.998;2022-12-18T09:56:44;-2.51;89.20
64997;SHT31;51545;51.568;6.998;2022-12-18T09:59:21;-2.44;89.16
64997;SHT31;51545;51.568;6.998;2022-12-18T10:01:50;-2.38;88.47
64997;SHT31;51545;51.568;6.998;2022-12-18T10:04:17;-2.30;88.15
64997;SHT31;51545;51.568;6.998;2022-12-18T10:06:46;-2.18;86.56
64997;SHT31;51545;51.568;6.998;2022-12-18T10:20:12;-1.73;86.18
64997;SHT31;51545;51.568;6.998;2022-12-18T10:25:29;-1.54;86.13
64997;SHT31;51545;51.568;6.998;2022-12-18T10:28:08;-1.42;85.12
64997;SHT31;51545;51.568;6.998;2022-12-18T10:30:36;-1.28;84.37
64997;SHT31;51545;51.568;6.998;2022-12-18T10:33:04;-1.24;85.08
64997;SHT31;51545;51.568;6.998;2022-12-18T10:35:29;-1.17;85.23
64997;SHT31;51545;51.568;6.998;2022-12-18T10:43:20;-0.87;85.01
64997;SHT31;51545;51.568;6.998;2022-12-18T10:46:00;-0.85;84.08
64997;SHT31;51545;51.568;6.998;2022-12-18T10:48:40;-0.70;83.00
64997;SHT31;51545;51.568;6.998;2022-12-18T10:51:21;-0.62;83.52
64997;SHT31;51545;51.568;6.998;2022-12-18T10:54:17;-0.54;83.75
64997;SHT31;51545;51.568;6.998;2022-12-18T10:56:46;-0.58;83.69
64997;SHT31;51545;51.568;6.998;2022-12-18T10:59:12;-0.51;83.50
64997;SHT31;51545;51.568;6.998;2022-12-18T11:01:52;-0.38;83.63
64997;SHT31;51545;51.568;6.998;2022-12-18T11:06:55;-0.26;80.58
64997;SHT31;51545;51.568;6.998;2022-12-18T11:09:24;-0.19;80.73
64997;SHT31;51545;51.568;6.998;2022-12-18T11:11:55;-0.13;80.85
64997;SHT31;51545;51.568;6.998;2022-12-18T11:14:25;-0.06;81.02
64997;SHT31;51545;51.568;6.998;2022-12-18T11:16:53;0.00;81.11
64997;SHT31;51545;51.568;6.998;2022-12-18T11:19:22;0.02;80.08
64997;SHT31;51545;51.568;6.998;2022-12-18T11:22:03;0.11;80.65
64997;SHT31;51545;51.568;6.998;2022-12-18T11:24:49;0.15;79.87
64997;SHT31;51545;51.568;6.998;2022-12-18T11:27:19;0.24;79.67
64997;SHT31;51545;51.568;6.998;2022-12-18T11:29:46;0.29;79.18
64997;SHT31;51545;51.568;6.998;2022-12-18T11:37:59;0.34;79.10
64997;SHT31;51545;51.568;6.998;2022-12-18T11:40:33;0.41;79.04
64997;SHT31;51545;51.568;6.998;2022-12-18T11:45:41;0.42;78.09
64997;SHT31;51545;51.568;6.998;2022-12-18T11:48:56;0.44;77.00
64997;SHT31;51545;51.568;6.998;2022-12-18T11:51:09;0.52;78.19
64997;SHT31;51545;51.568;6.998;2022-12-18T11:53:39;0.49;78.23
64997;SHT31;51545;51.568;6.998;2022-12-18T11:56:11;0.55;77.11
64997;SHT31;51545;51.568;6.998;2022-12-18T12:01:52;0.60;78.14
64997;SHT31;51545;51.568;6.998;2022-12-18T12:10:12;0.73;77.37
64997;SHT31;51545;51.568;6.998;2022-12-18T12:12:45;0.70;77.38
64997;SHT31;51545;51.568;6.998;2022-12-18T12:15:33;0.77;77.65
64997;SHT31;51545;51.568;6.998;2022-12-18T12:18:20;0.76;77.17
64997;SHT31;51545;51.568;6.998;2022-12-18T12:27:00;0.85;77.25
64997;SHT31;51545;51.568;6.998;2022-12-18T12:32:23;0.97;76.99
64997;SHT31;51545;51.568;6.998;2022-12-18T12:35:05;0.97;78.42
64997;SHT31;51545;51.568;6.998;2022-12-18T12:40:12;1.02;77.39
64997;SHT31;51545;51.568;6.998;2022-12-18T12:42:43;1.04;77.32
64997;SHT31;51545;51.568;6.998;2022-12-18T12:48:36;1.07;77.10
64997;SHT31;51545;51.568;6.998;2022-12-18T12:51:09;1.09;75.94
64997;SHT31;51545;51.568;6.998;2022-12-18T12:53:39;1.07;77.02
64997;SHT31;51545;51.568;6.998;2022-12-18T12:56:06;1.09;76.40
64997;SHT31;51545;51.568;6.998;2022-12-18T13:01:31;1.07;75.25
64997;SHT31;51545;51.568;6.998;2022-12-18T13:07:05;1.00;76.60
64997;SHT31;51545;51.568;6.998;2022-12-18T13:10:10;1.00;79.17
64997;SHT31;51545;51.568;6.998;2022-12-18T13:12:50;1.00;78.89
64997;SHT31;51545;51.568;6.998;2022-12-18T13:15:25;0.85;79.21
64997;SHT31;51545;51.568;6.998;2022-12-18T13:20:35;0.72;78.22
64997;SHT31;51545;51.568;6.998;2022-12-18T13:25:53;0.77;79.83
64997;SHT31;51545;51.568;6.998;2022-12-18T13:34:22;0.72;79.99
64997;SHT31;51545;51.568;6.998;2022-12-18T13:36:49;0.70;79.98
64997;SHT31;51545;51.568;6.998;2022-12-18T13:41:44;0.60;80.25
64997;SHT31;51545;51.568;6.998;2022-12-18T13:44:25;0.62;80.43
64997;SHT31;51545;51.568;6.998;2022-12-18T13:46:57;0.59;80.82
64997;SHT31;51545;51.568;6.998;2022-12-18T13:51:51;0.57;80.88
64997;SHT31;51545;51.568;6.998;2022-12-18T13:54:21;0.46;81.18
64997;SHT31;51545;51.568;6.998;2022-12-18T13:56:51;0.52;81.05
64997;SHT31;51545;51.568;6.998;2022-12-18T13:59:18;0.55;81.01
64997;SHT31;51545;51.568;6.998;2022-12-18T14:01:47;0.50;81.25
64997;SHT31;51545;51.568;6.998;2022-12-18T14:04:20;0.52;81.21
64997;SHT31;51545;51.568;6.998;2022-12-18T14:06:46;0.49;80.45
64997;SHT31;51545;51.568;6.998;2022-12-18T14:09:18;0.55;80.25
64997;SHT31;51545;51.568;6.998;2022-12-18T14:11:50;0.56;79.71
64997;SHT31;51545;51.568;6.998;2022-12-18T14:14:17;0.60;79.81
64997;SHT31;51545;51.568;6.998;2022-12-18T14:16:44;0.63;78.99
64997;SHT31;51545;51.568;6.998;2022-12-18T14:19:15;0.66;78.56
64997;SHT31;51545;51.568;6.998;2022-12-18T14:21:47;0.76;77.79
64997;SHT31;51545;51.568;6.998;2022-12-18T14:24:20;0.83;76.96
64997;SHT31;51545;51.568;6.998;2022-12-18T14:26:49;0.92;75.74
64997;SHT31;51545;51.568;6.998;2022-12-18T14:34:42;1.18;73.56
64997;SHT31;51545;51.568;6.998;2022-12-18T14:37:09;1.08;74.41
64997;SHT31;51545;51.568;6.998;2022-12-18T14:39:37;1.11;73.86
64997;SHT31;51545;51.568;6.998;2022-12-18T14:42:03;1.15;73.12
64997;SHT31;51545;51.568;6.998;2022-12-18T14:44:28;1.14;73.81
64997;SHT31;51545;51.568;6.998;2022-12-18T14:46:54;1.04;73.36
64997;SHT31;51545;51.568;6.998;2022-12-18T14:49:22;1.25;71.85
64997;SHT31;51545;51.568;6.998;2022-12-18T14:52:00;1.32;70.73
64997;SHT31;51545;51.568;6.998;2022-12-18T14:54:27;1.42;69.81
64997;SHT31;51545;51.568;6.998;2022-12-18T14:57:01;1.36;70.76
64997;SHT31;51545;51.568;6.998;2022-12-18T14:59:29;1.36;70.01
64997;SHT31;51545;51.568;6.998;2022-12-18T15:05:00;1.36;70.09
64997;SHT31;51545;51.568;6.998;2022-12-18T15:07:43;1.32;71.12
64997;SHT31;51545;51.568;6.998;2022-12-18T15:10:14;1.29;70.14
64997;SHT31;51545;51.568;6.998;2022-12-18T15:12:43;1.31;69.73
64997;SHT31;51545;51.568;6.998;2022-12-18T15:18:01;1.35;69.43
64997;SHT31;51545;51.568;6.998;2022-12-18T15:20:55;1.42;69.02
64997;SHT31;51545;51.568;6.998;2022-12-18T15:23:28;1.36;69.37
64997;SHT31;51545;51.568;6.998;2022-12-18T15:26:04;1.39;69.10
64997;SHT31;51545;51.568;6.998;2022-12-18T15:28:38;1.34;69.23
64997;SHT31;51545;51.568;6.998;2022-12-18T15:33:44;1.43;68.54
64997;SHT31;51545;51.568;6.998;2022-12-18T15:36:25;1.34;69.20
64997;SHT31;51545;51.568;6.998;2022-12-18T15:38:52;1.32;69.20
64997;SHT31;51545;51.568;6.998;2022-12-18T15:41:20;1.26;69.28
64997;SHT31;51545;51.568;6.998;2022-12-18T15:43:50;1.32;69.06
64997;SHT31;51545;51.568;6.998;2022-12-18T15:46:19;1.34;68.86
64997;SHT31;51545;51.568;6.998;2022-12-18T15:48:51;1.31;68.71
64997;SHT31;51545;51.568;6.998;2022-12-18T15:51:19;1.31;68.65
64997;SHT31;51545;51.568;6.998;2022-12-18T15:53:50;1.26;69.07
64997;SHT31;51545;51.568;6.998;2022-12-18T15:56:19;1.18;69.51
64997;SHT31;51545;51.568;6.998;2022-12-18T15:59:10;1.14;70.05
64997;SHT31;51545;51.568;6.998;2022-12-18T16:01:37;1.08;70.30
64997;SHT31;51545;51.568;6.998;2022-12-18T16:04:03;1.05;70.28
64997;SHT31;51545;51.568;6.998;2022-12-18T16:06:28;1.17;69.63
64997;SHT31;51545;51.568;6.998;2022-12-18T16:08:54;1.11;69.89
64997;SHT31;51545;51.568;6.998;2022-12-18T16:11:28;1.09;70.50
64997;SHT31;51545;51.568;6.998;2022-12-18T16:16:43;1.05;70.48
64997;SHT31;51545;51.568;6.998;2022-12-18T16:19:08;1.04;70.84
64997;SHT31;51545;51.568;6.998;2022-12-18T16:21:34;0.97;70.79
64997;SHT31;51545;51.568;6.998;2022-12-18T16:23:59;0.97;71.04
64997;SHT31;51545;51.568;6.998;2022-12-18T16:26:24;0.92;71.26
64997;SHT31;51545;51.568;6.998;2022-12-18T16:28:50;0.91;71.39
64997;SHT31;51545;51.568;6.998;2022-12-18T16:31:15;0.90;72.26
64997;SHT31;51545;51.568;6.998;2022-12-18T16:33:41;0.85;72.31
64997;SHT31;51545;51.568;6.998;2022-12-18T16:36:06;0.83;72.31
64997;SHT31;51545;51.568;6.998;2022-12-18T16:38:32;0.81;72.72
64997;SHT31;51545;51.568;6.998;2022-12-18T16:40:58;0.77;72.65
64997;SHT31;51545;51.568;6.998;2022-12-18T16:43:42;0.77;72.21
64997;SHT31;51545;51.568;6.998;2022-12-18T16:46:07;0.77;73.22
64997;SHT31;51545;51.568;6.998;2022-12-18T16:48:33;0.74;73.00
64997;SHT31;51545;51.568;6.998;2022-12-18T16:50:59;0.72;74.25
64997;SHT31;51545;51.568;6.998;2022-12-18T16:53:26;0.66;74.47
64997;SHT31;51545;51.568;6.998;2022-12-18T16:55:55;0.63;75.60
64997;SHT31;51545;51.568;6.998;2022-12-18T16:58:20;0.67;74.32
64997;SHT31;51545;51.568;6.998;2022-12-18T17:00:46;0.72;73.75
64997;SHT31;51545;51.568;6.998;2022-12-18T17:03:12;0.76;74.42
64997;SHT31;51545;51.568;6.998;2022-12-18T17:05:37;0.77;74.44
64997;SHT31;51545;51.568;6.998;2022-12-18T17:08:03;0.80;74.92
64997;SHT31;51545;51.568;6.998;2022-12-18T17:10:29;0.87;74.60
64997;SHT31;51545;51.568;6.998;2022-12-18T17:12:54;0.97;74.61
64997;SHT31;51545;51.568;6.998;2022-12-18T17:15:20;0.98;74.74
64997;SHT31;51545;51.568;6.998;2022-12-18T17:17:45;0.97;74.93
64997;SHT31;51545;51.568;6.998;2022-12-18T17:20:10;1.11;75.39
64997;SHT31;51545;51.568;6.998;2022-12-18T17:22:36;1.15;75.57
64997;SHT31;51545;51.568;6.998;2022-12-18T17:25:01;1.15;75.57
64997;SHT31;51545;51.568;6.998;2022-12-18T17:27:27;1.18;75.62
64997;SHT31;51545;51.568;6.998;2022-12-18T17:29:53;1.15;75.88
64997;SHT31;51545;51.568;6.998;2022-12-18T17:32:18;1.24;76.15
64997;SHT31;51545;51.568;6.998;2022-12-18T17:34:44;1.32;76.07
64997;SHT31;51545;51.568;6.998;2022-12-18T17:37:09;1.38;76.43
64997;SHT31;51545;51.568;6.998;2022-12-18T17:39:35;1.53;75.96
64997;SHT31;51545;51.568;6.998;2022-12-18T17:42:00;1.52;75.95
64997;SHT31;51545;51.568;6.998;2022-12-18T17:44:26;1.46;76.57
64997;SHT31;51545;51.568;6.998;2022-12-18T17:46:51;1.43;76.79
64997;SHT31;51545;51.568;6.998;2022-12-18T17:49:16;1.42;77.01
64997;SHT31;51545;51.568;6.998;2022-12-18T17:51:42;1.35;77.07
64997;SHT31;51545;51.568;6.998;2022-12-18T17:54:08;1.45;76.94
64997;SHT31;51545;51.568;6.998;2022-12-18T17:56:34;1.40;77.00
64997;SHT31;51545;51.568;6.998;2022-12-18T17:59:00;1.34;77.38